createdAt,value
2017-12-05T00:00:43.011Z,9.70
2017-12-05T00:01:43.075Z,9.70
2017-12-05T00:02:43.009Z,9.70
2017-12-05T00:03:43.081Z,9.70
2017-12-05T00:04:43.008Z,9.70
2017-12-05T00:05:43.081Z,9.70
2017-12-05T00:06:43.077Z,9.70
2017-12-05T00:07:43.077Z,9.70
2017-12-05T00:08:42.978Z,13.70
2017-12-05T00:09:42.983Z,13.70
2017-12-05T00:10:43.013Z,13.70
2017-12-05T00:11:42.980Z,13.70
2017-12-05T00:12:43.015Z,13.70
2017-12-05T00:13:43.016Z,13.70
2017-12-05T00:14:42.985Z,13.70
2017-12-05T00:15:42.987Z,13.70
2017-12-05T00:16:42.990Z,13.70
2017-12-05T00:17:43.016Z,13.70
2017-12-05T00:18:43.012Z,8.40
2017-12-05T00:19:43.085Z,8.40
2017-12-05T00:20:43.013Z,8.40
2017-12-05T00:21:43.089Z,8.40
2017-12-05T00:22:43.025Z,8.40
2017-12-05T00:23:43.016Z,8.40
2017-12-05T00:24:43.024Z,8.40
2017-12-05T00:25:43.018Z,8.40
2017-12-05T00:26:43.090Z,8.40
2017-12-05T00:27:43.022Z,8.40
2017-12-05T00:28:43.094Z,10.80
2017-12-05T00:29:43.089Z,10.80
2017-12-05T00:30:43.091Z,10.80
2017-12-05T00:31:43.024Z,10.80
2017-12-05T00:32:43.084Z,10.80
2017-12-05T00:33:43.025Z,10.80
2017-12-05T00:34:43.141Z,10.80
2017-12-05T00:35:43.031Z,10.80
2017-12-05T00:36:43.092Z,10.80
2017-12-05T00:37:43.023Z,10.80
2017-12-05T00:38:43.080Z,10.50
2017-12-05T00:39:42.999Z,10.50
2017-12-05T00:40:42.981Z,10.50
2017-12-05T00:41:43.053Z,10.50
2017-12-05T00:42:43.083Z,10.50
2017-12-05T00:43:43.000Z,10.50
2017-12-05T00:44:43.003Z,10.50
2017-12-05T00:45:43.033Z,10.50
2017-12-05T00:46:42.963Z,10.50
2017-12-05T00:47:43.088Z,10.50
2017-12-05T00:48:43.035Z,11.20
2017-12-05T00:49:43.103Z,11.20
2017-12-05T00:50:43.039Z,11.20
2017-12-05T00:51:42.998Z,11.20
2017-12-05T00:52:43.040Z,11.20
2017-12-05T00:53:43.106Z,11.20
2017-12-05T00:54:43.050Z,11.20
2017-12-05T00:55:43.043Z,11.20
2017-12-05T00:56:43.127Z,11.20
2017-12-05T00:57:43.044Z,11.20
2017-12-05T00:58:43.106Z,18.30
2017-12-05T00:59:43.081Z,18.30
2017-12-05T01:00:42.989Z,18.30
2017-12-05T01:01:43.013Z,18.30
2017-12-05T01:02:43.017Z,18.30
2017-12-05T01:03:43.016Z,18.30
2017-12-05T01:04:43.015Z,18.30
2017-12-05T01:05:43.013Z,18.30
2017-12-05T01:06:42.994Z,18.30
2017-12-05T01:07:42.975Z,18.30
2017-12-05T01:08:43.116Z,15.50
2017-12-05T01:09:43.048Z,15.50
2017-12-05T01:10:43.116Z,15.50
2017-12-05T01:11:43.050Z,15.50
2017-12-05T01:12:43.117Z,15.50
2017-12-05T01:13:43.055Z,15.50
2017-12-05T01:14:43.119Z,15.50
2017-12-05T01:15:43.053Z,15.50
2017-12-05T01:16:43.119Z,15.50
2017-12-05T01:17:43.076Z,15.50
2017-12-05T01:18:43.136Z,18.40
2017-12-05T01:19:43.121Z,18.40
2017-12-05T01:20:43.056Z,18.40
2017-12-05T01:21:43.125Z,18.40
2017-12-05T01:22:43.129Z,18.40
2017-12-05T01:23:43.060Z,18.40
2017-12-05T01:24:43.051Z,18.40
2017-12-05T01:25:43.123Z,18.40
2017-12-05T01:26:43.054Z,18.40
2017-12-05T01:27:43.123Z,18.40
2017-12-05T01:28:43.029Z,13.70
2017-12-05T01:29:43.008Z,13.70
2017-12-05T01:30:43.079Z,13.70
2017-12-05T01:31:43.033Z,13.70
2017-12-05T01:32:43.005Z,13.70
2017-12-05T01:33:43.006Z,13.70
2017-12-05T01:34:42.995Z,13.70
2017-12-05T01:35:43.078Z,13.70
2017-12-05T01:36:43.014Z,13.70
2017-12-05T01:37:43.086Z,13.70
2017-12-05T01:38:43.121Z,11.80
2017-12-05T01:39:43.017Z,11.80
2017-12-05T01:40:43.060Z,11.80
2017-12-05T01:41:43.121Z,11.80
2017-12-05T01:42:43.135Z,11.80
2017-12-05T01:43:43.092Z,11.80
2017-12-05T01:44:43.104Z,11.80
2017-12-05T01:45:43.103Z,11.80
2017-12-05T01:46:43.016Z,11.80
2017-12-05T01:47:43.068Z,11.80
2017-12-05T01:48:43.044Z,12.30
2017-12-05T01:49:43.044Z,12.30
2017-12-05T01:50:43.127Z,12.30
2017-12-05T01:51:43.023Z,12.30
2017-12-05T01:52:43.075Z,12.30
2017-12-05T01:53:43.093Z,12.30
2017-12-05T01:54:43.129Z,12.30
2017-12-05T01:55:43.128Z,12.30
2017-12-05T01:56:43.026Z,12.30
2017-12-05T01:57:43.127Z,12.30
2017-12-05T01:58:43.081Z,13.80
2017-12-05T01:59:43.096Z,13.80
2017-12-05T02:00:43.012Z,13.80
2017-12-05T02:01:43.082Z,13.80
2017-12-05T02:02:43.008Z,13.80
2017-12-05T02:03:43.047Z,13.80
2017-12-05T02:04:43.132Z,13.80
2017-12-05T02:05:43.137Z,13.80
2017-12-05T02:06:43.052Z,13.80
2017-12-05T02:07:43.134Z,13.80
2017-12-05T02:08:43.152Z,10.60
2017-12-05T02:09:43.087Z,10.60
2017-12-05T02:10:43.032Z,10.60
2017-12-05T02:11:43.151Z,10.60
2017-12-05T02:12:43.092Z,10.60
2017-12-05T02:13:43.151Z,10.60
2017-12-05T02:14:43.083Z,10.60
2017-12-05T02:15:43.152Z,10.60
2017-12-05T02:16:43.089Z,10.60
2017-12-05T02:17:43.156Z,10.60
2017-12-05T02:18:43.055Z,10.10
2017-12-05T02:19:43.011Z,10.10
2017-12-05T02:20:43.005Z,10.10
2017-12-05T02:21:43.008Z,10.10
2017-12-05T02:22:43.009Z,10.10
2017-12-05T02:23:43.009Z,10.10
2017-12-05T02:24:43.053Z,10.10
2017-12-05T02:25:43.175Z,10.10
2017-12-05T02:26:43.015Z,10.10
2017-12-05T02:27:43.010Z,10.10
2017-12-05T02:28:43.148Z,11.60
2017-12-05T02:29:43.149Z,11.60
2017-12-05T02:30:43.027Z,11.60
2017-12-05T02:31:43.148Z,11.60
2017-12-05T02:32:43.042Z,11.60
2017-12-05T02:33:43.123Z,11.60
2017-12-05T02:34:43.035Z,11.60
2017-12-05T02:35:43.066Z,11.60
2017-12-05T02:36:43.128Z,11.60
2017-12-05T02:37:43.071Z,11.60
2017-12-05T02:38:43.115Z,13.00
2017-12-05T02:39:43.022Z,13.00
2017-12-05T02:40:43.056Z,13.00
2017-12-05T02:41:43.028Z,13.00
2017-12-05T02:42:43.070Z,13.00
2017-12-05T02:43:43.115Z,13.00
2017-12-05T02:44:43.026Z,13.00
2017-12-05T02:45:43.120Z,13.00
2017-12-05T02:46:43.072Z,13.00
2017-12-05T02:47:43.025Z,13.00
2017-12-05T02:48:43.080Z,11.60
2017-12-05T02:49:43.128Z,11.60
2017-12-05T02:50:43.114Z,11.60
2017-12-05T02:51:43.057Z,11.60
2017-12-05T02:52:43.129Z,11.60
2017-12-05T02:53:43.171Z,11.60
2017-12-05T02:54:43.061Z,11.60
2017-12-05T02:55:43.170Z,11.60
2017-12-05T02:56:43.132Z,11.60
2017-12-05T02:57:43.120Z,11.60
2017-12-05T02:58:43.108Z,13.99
2017-12-05T02:59:43.177Z,13.99
2017-12-05T03:00:43.117Z,13.99
2017-12-05T03:01:43.141Z,13.99
2017-12-05T03:02:43.113Z,13.99
2017-12-05T03:03:43.183Z,13.99
2017-12-05T03:04:43.109Z,13.99
2017-12-05T03:05:43.185Z,13.99
2017-12-05T03:06:43.117Z,13.99
2017-12-05T03:07:43.185Z,13.99
2017-12-05T03:08:43.124Z,13.99
2017-12-05T03:09:43.185Z,13.99
2017-12-05T03:10:43.124Z,13.99
2017-12-05T03:11:43.188Z,13.99
2017-12-05T03:12:43.203Z,13.99
2017-12-05T03:13:43.124Z,13.99
2017-12-05T03:14:43.225Z,13.99
2017-12-05T03:15:43.197Z,13.99
2017-12-05T03:16:43.124Z,13.99
2017-12-05T03:17:43.192Z,13.99
2017-12-05T03:18:43.128Z,13.99
2017-12-05T03:19:43.129Z,10.90
2017-12-05T03:20:43.193Z,10.90
2017-12-05T03:21:43.131Z,10.90
2017-12-05T03:22:43.152Z,10.90
2017-12-05T03:23:43.195Z,10.90
2017-12-05T03:24:43.130Z,10.90
2017-12-05T03:25:47.596Z,10.90
2017-12-05T03:26:43.129Z,10.90
2017-12-05T03:27:43.237Z,10.90
2017-12-05T03:28:43.164Z,10.90
2017-12-05T03:29:43.137Z,18.20
2017-12-05T03:30:43.201Z,18.20
2017-12-05T03:31:43.131Z,18.20
2017-12-05T03:32:43.200Z,18.20
2017-12-05T03:33:43.135Z,18.20
2017-12-05T03:34:43.201Z,18.20
2017-12-05T03:35:43.137Z,18.20
2017-12-05T03:36:43.204Z,18.20
2017-12-05T03:37:43.196Z,18.20
2017-12-05T03:38:43.144Z,18.20
2017-12-05T03:39:43.096Z,12.80
2017-12-05T03:40:43.182Z,12.80
2017-12-05T03:41:43.192Z,12.80
2017-12-05T03:42:43.100Z,12.80
2017-12-05T03:43:43.170Z,12.80
2017-12-05T03:44:43.102Z,12.80
2017-12-05T03:45:43.075Z,12.80
2017-12-05T03:46:43.075Z,12.80
2017-12-05T03:47:43.186Z,12.80
2017-12-05T03:48:43.133Z,12.80
2017-12-05T03:49:43.142Z,15.50
2017-12-05T03:50:43.247Z,15.50
2017-12-05T03:51:43.212Z,15.50
2017-12-05T03:52:43.148Z,15.50
2017-12-05T03:53:43.213Z,15.50
2017-12-05T03:54:43.158Z,15.50
2017-12-05T03:55:43.214Z,15.50
2017-12-05T03:56:43.180Z,15.50
2017-12-05T03:57:43.149Z,15.50
2017-12-05T03:58:43.215Z,15.50
2017-12-05T03:59:43.153Z,18.70
2017-12-05T04:00:43.148Z,18.70
2017-12-05T04:01:43.217Z,18.70
2017-12-05T04:02:43.152Z,18.70
2017-12-05T04:03:43.161Z,18.70
2017-12-05T04:04:43.154Z,18.70
2017-12-05T04:05:43.220Z,18.70
2017-12-05T04:06:43.157Z,18.70
2017-12-05T04:07:43.155Z,18.70
2017-12-05T04:08:43.175Z,18.70
2017-12-05T04:09:43.224Z,25.70
2017-12-05T04:10:43.222Z,25.70
2017-12-05T04:11:43.221Z,25.70
2017-12-05T04:12:43.156Z,25.70
2017-12-05T04:13:43.232Z,25.70
2017-12-05T04:14:43.156Z,25.70
2017-12-05T04:15:43.161Z,25.70
2017-12-05T04:16:43.161Z,25.70
2017-12-05T04:17:43.166Z,25.70
2017-12-05T04:18:43.227Z,25.70
2017-12-05T04:19:43.170Z,25.60
2017-12-05T04:20:43.132Z,25.60
2017-12-05T04:21:43.173Z,25.60
2017-12-05T04:22:43.222Z,25.60
2017-12-05T04:23:43.140Z,25.60
2017-12-05T04:24:43.151Z,25.60
2017-12-05T04:25:43.102Z,25.60
2017-12-05T04:26:43.137Z,25.60
2017-12-05T04:27:43.193Z,25.60
2017-12-05T04:28:43.112Z,25.60
2017-12-05T04:29:43.102Z,25.80
2017-12-05T04:30:43.233Z,25.80
2017-12-05T04:31:43.141Z,25.80
2017-12-05T04:32:43.192Z,25.80
2017-12-05T04:33:43.143Z,25.80
2017-12-05T04:34:43.138Z,25.80
2017-12-05T04:35:43.146Z,25.80
2017-12-05T04:36:43.146Z,25.80
2017-12-05T04:37:43.147Z,25.80
2017-12-05T04:38:43.149Z,25.80
2017-12-05T04:39:43.212Z,23.40
2017-12-05T04:40:43.242Z,23.40
2017-12-05T04:41:43.176Z,23.40
2017-12-05T04:42:43.177Z,23.40
2017-12-05T04:43:43.177Z,23.40
2017-12-05T04:44:43.270Z,23.40
2017-12-05T04:45:43.181Z,23.40
2017-12-05T04:46:43.124Z,23.40
2017-12-05T04:47:43.182Z,23.40
2017-12-05T04:48:43.255Z,23.40
2017-12-05T04:49:43.150Z,23.90
2017-12-05T04:50:43.133Z,23.90
2017-12-05T04:51:43.155Z,23.90
2017-12-05T04:52:43.208Z,23.90
2017-12-05T04:53:43.239Z,23.90
2017-12-05T04:54:43.204Z,23.90
2017-12-05T04:55:43.239Z,23.90
2017-12-05T04:56:43.209Z,23.90
2017-12-05T04:57:43.153Z,23.90
2017-12-05T04:58:43.241Z,23.90
2017-12-05T04:59:43.240Z,27.90
2017-12-05T05:00:43.124Z,27.90
2017-12-05T05:01:43.249Z,27.90
2017-12-05T05:02:43.139Z,27.90
2017-12-05T05:03:43.200Z,27.90
2017-12-05T05:04:43.158Z,27.90
2017-12-05T05:05:43.252Z,27.90
2017-12-05T05:06:43.253Z,27.90
2017-12-05T05:07:43.244Z,27.90
2017-12-05T05:08:43.158Z,27.90
2017-12-05T05:09:43.196Z,23.50
2017-12-05T05:10:43.191Z,23.50
2017-12-05T05:11:43.264Z,23.50
2017-12-05T05:12:43.193Z,23.50
2017-12-05T05:13:43.197Z,23.50
2017-12-05T05:14:43.260Z,23.50
2017-12-05T05:15:43.193Z,23.50
2017-12-05T05:16:43.263Z,23.50
2017-12-05T05:17:43.266Z,23.50
2017-12-05T05:18:43.269Z,23.50
2017-12-05T05:19:43.228Z,23.20
2017-12-05T05:20:43.161Z,23.20
2017-12-05T05:21:43.131Z,23.20
2017-12-05T05:22:43.132Z,23.20
2017-12-05T05:23:43.249Z,23.20
2017-12-05T05:24:43.222Z,23.20
2017-12-05T05:25:43.140Z,23.20
2017-12-05T05:26:43.136Z,23.20
2017-12-05T05:27:43.257Z,23.20
2017-12-05T05:28:43.157Z,23.20
2017-12-05T05:29:43.174Z,23.80
2017-12-05T05:30:43.265Z,23.80
2017-12-05T05:31:43.176Z,23.80
2017-12-05T05:32:43.211Z,23.80
2017-12-05T05:33:43.181Z,23.80
2017-12-05T05:34:43.230Z,23.80
2017-12-05T05:35:43.179Z,23.80
2017-12-05T05:36:43.183Z,23.80
2017-12-05T05:37:43.217Z,23.80
2017-12-05T05:38:43.163Z,23.80
2017-12-05T05:39:43.277Z,32.50
2017-12-05T05:40:43.210Z,32.50
2017-12-05T05:41:43.277Z,32.50
2017-12-05T05:42:43.218Z,32.50
2017-12-05T05:43:43.286Z,32.50
2017-12-05T05:44:43.215Z,32.50
2017-12-05T05:45:43.289Z,32.50
2017-12-05T05:46:43.242Z,32.50
2017-12-05T05:47:43.216Z,32.50
2017-12-05T05:48:43.218Z,32.50
2017-12-05T05:49:43.183Z,25.00
2017-12-05T05:50:43.238Z,25.00
2017-12-05T05:51:43.229Z,25.00
2017-12-05T05:52:43.137Z,25.00
2017-12-05T05:53:43.188Z,25.00
2017-12-05T05:54:43.144Z,25.00
2017-12-05T05:55:43.235Z,25.00
2017-12-05T05:56:43.141Z,25.00
2017-12-05T05:57:43.188Z,25.00
2017-12-05T05:58:43.191Z,25.00
2017-12-05T05:59:43.289Z,26.40
2017-12-05T06:00:43.223Z,26.40
2017-12-05T06:01:43.184Z,26.40
2017-12-05T06:02:43.231Z,26.40
2017-12-05T06:03:43.296Z,26.40
2017-12-05T06:04:43.226Z,26.40
2017-12-05T06:05:43.295Z,26.40
2017-12-05T06:06:43.231Z,26.40
2017-12-05T06:07:43.336Z,26.40
2017-12-05T06:08:43.293Z,26.40
2017-12-05T06:09:43.226Z,29.60
2017-12-05T06:10:43.263Z,29.60
2017-12-05T06:11:43.299Z,29.60
2017-12-05T06:12:43.230Z,29.60
2017-12-05T06:13:43.192Z,29.60
2017-12-05T06:14:43.234Z,29.60
2017-12-05T06:15:43.236Z,29.60
2017-12-05T06:16:43.234Z,29.60
2017-12-05T06:17:43.300Z,29.60
2017-12-05T06:18:43.234Z,29.60
2017-12-05T06:19:43.260Z,26.60
2017-12-05T06:20:43.197Z,26.60
2017-12-05T06:21:43.237Z,26.60
2017-12-05T06:22:43.192Z,26.60
2017-12-05T06:23:43.195Z,26.60
2017-12-05T06:24:43.263Z,26.60
2017-12-05T06:25:43.195Z,26.60
2017-12-05T06:26:43.286Z,26.60
2017-12-05T06:27:43.194Z,26.60
2017-12-05T06:28:43.288Z,26.60
2017-12-05T06:29:43.236Z,28.50
2017-12-05T06:30:43.287Z,28.50
2017-12-05T06:31:43.242Z,28.50
2017-12-05T06:32:43.262Z,28.50
2017-12-05T06:33:43.207Z,28.50
2017-12-05T06:34:43.254Z,28.50
2017-12-05T06:35:43.176Z,28.50
2017-12-05T06:36:43.261Z,28.50
2017-12-05T06:37:43.175Z,28.50
2017-12-05T06:38:43.266Z,28.50
2017-12-05T06:39:43.171Z,28.50
2017-12-05T06:40:43.311Z,25.70
2017-12-05T06:41:43.241Z,25.70
2017-12-05T06:42:43.311Z,25.70
2017-12-05T06:43:43.248Z,25.70
2017-12-05T06:44:43.341Z,25.70
2017-12-05T06:45:43.251Z,25.70
2017-12-05T06:46:43.316Z,25.70
2017-12-05T06:47:43.252Z,25.70
2017-12-05T06:48:43.316Z,25.70
2017-12-05T06:49:43.254Z,25.70
2017-12-05T06:50:43.318Z,25.70
2017-12-05T06:51:43.318Z,20.30
2017-12-05T06:52:43.276Z,20.30
2017-12-05T06:53:43.322Z,20.30
2017-12-05T06:54:43.253Z,20.30
2017-12-05T06:55:43.411Z,20.30
2017-12-05T06:56:43.320Z,20.30
2017-12-05T06:57:43.253Z,20.30
2017-12-05T06:58:43.323Z,20.30
2017-12-05T06:59:43.324Z,19.90
2017-12-05T07:00:43.256Z,19.90
2017-12-05T07:02:43.260Z,19.90
2017-12-05T07:03:43.328Z,19.90
2017-12-05T07:04:43.341Z,19.90
2017-12-05T07:05:43.293Z,19.90
2017-12-05T07:06:43.335Z,19.90
2017-12-05T07:07:43.263Z,19.90
2017-12-05T07:08:43.268Z,19.90
2017-12-05T07:09:43.321Z,17.20
2017-12-05T07:10:43.238Z,17.20
2017-12-05T07:11:43.285Z,17.20
2017-12-05T07:12:43.237Z,17.20
2017-12-05T07:13:43.334Z,17.20
2017-12-05T07:14:43.328Z,17.20
2017-12-05T07:15:43.271Z,17.20
2017-12-05T07:16:43.324Z,17.20
2017-12-05T07:17:43.333Z,17.20
2017-12-05T07:18:43.241Z,17.20
2017-12-05T07:19:43.204Z,13.90
2017-12-05T07:20:43.296Z,13.90
2017-12-05T07:21:43.245Z,13.90
2017-12-05T07:22:43.306Z,13.90
2017-12-05T07:23:43.245Z,13.90
2017-12-05T07:24:43.326Z,13.90
2017-12-05T07:25:43.206Z,13.90
2017-12-05T07:26:43.336Z,13.90
2017-12-05T07:27:43.222Z,13.90
2017-12-05T07:28:43.334Z,13.90
2017-12-05T07:29:43.230Z,14.00
2017-12-05T07:30:43.320Z,14.00
2017-12-05T07:31:43.323Z,14.00
2017-12-05T07:32:43.217Z,14.00
2017-12-05T07:33:43.306Z,14.00
2017-12-05T07:34:43.233Z,14.00
2017-12-05T07:35:43.245Z,14.00
2017-12-05T07:36:43.243Z,14.00
2017-12-05T07:37:43.213Z,14.00
2017-12-05T07:38:43.240Z,14.00
2017-12-05T07:39:43.249Z,14.10
2017-12-05T07:40:43.303Z,14.10
2017-12-05T07:41:43.338Z,14.10
2017-12-05T07:42:43.369Z,14.10
2017-12-05T07:43:43.287Z,14.10
2017-12-05T07:44:43.351Z,14.10
2017-12-05T07:45:43.275Z,14.10
2017-12-05T07:46:43.252Z,14.10
2017-12-05T07:47:43.221Z,14.10
2017-12-05T07:48:43.306Z,14.10
2017-12-05T07:49:43.356Z,15.80
2017-12-05T07:50:43.287Z,15.80
2017-12-05T07:51:43.373Z,15.80
2017-12-05T07:52:43.290Z,15.80
2017-12-05T07:53:43.363Z,15.80
2017-12-05T07:54:43.294Z,15.80
2017-12-05T07:55:43.361Z,15.80
2017-12-05T07:56:43.298Z,15.80
2017-12-05T07:57:43.289Z,15.80
2017-12-05T07:58:43.376Z,15.80
2017-12-05T07:59:43.337Z,14.30
2017-12-05T08:00:43.291Z,14.30
2017-12-05T08:01:43.285Z,14.30
2017-12-05T08:02:43.337Z,14.30
2017-12-05T08:03:43.305Z,14.30
2017-12-05T08:04:43.296Z,14.30
2017-12-05T08:05:43.265Z,14.30
2017-12-05T08:06:43.263Z,14.30
2017-12-05T08:07:43.250Z,14.30
2017-12-05T08:08:43.308Z,14.30
2017-12-05T08:09:43.364Z,14.50
2017-12-05T08:10:43.364Z,14.50
2017-12-05T08:11:43.295Z,14.50
2017-12-05T08:12:43.364Z,14.50
2017-12-05T08:13:43.306Z,14.50
2017-12-05T08:14:43.372Z,14.50
2017-12-05T08:15:43.369Z,14.50
2017-12-05T08:16:43.298Z,14.50
2017-12-05T08:17:43.372Z,14.50
2017-12-05T08:18:43.309Z,14.50
2017-12-05T08:19:43.373Z,13.60
2017-12-05T08:20:43.304Z,13.60
2017-12-05T08:21:43.373Z,13.60
2017-12-05T08:22:43.307Z,13.60
2017-12-05T08:23:43.374Z,13.60
2017-12-05T08:24:43.311Z,13.60
2017-12-05T08:25:43.375Z,13.60
2017-12-05T08:26:43.308Z,13.60
2017-12-05T08:27:43.319Z,13.60
2017-12-05T08:28:43.313Z,13.60
2017-12-05T08:29:43.290Z,15.60
2017-12-05T08:30:43.242Z,15.60
2017-12-05T08:31:43.384Z,15.60
2017-12-05T08:32:43.248Z,15.60
2017-12-05T08:33:43.381Z,15.60
2017-12-05T08:34:43.248Z,15.60
2017-12-05T08:35:43.374Z,15.60
2017-12-05T08:36:43.316Z,15.60
2017-12-05T08:37:43.263Z,15.60
2017-12-05T08:38:43.283Z,15.60
2017-12-05T08:39:43.282Z,16.00
2017-12-05T08:40:43.237Z,16.00
2017-12-05T08:41:43.317Z,16.00
2017-12-05T08:42:43.234Z,16.00
2017-12-05T08:43:43.236Z,16.00
2017-12-05T08:44:43.289Z,16.00
2017-12-05T08:45:43.242Z,16.00
2017-12-05T08:46:43.287Z,16.00
2017-12-05T08:47:43.334Z,16.00
2017-12-05T08:48:43.240Z,16.00
2017-12-05T08:49:43.320Z,15.50
2017-12-05T08:50:43.390Z,15.50
2017-12-05T08:51:43.322Z,15.50
2017-12-05T08:52:43.392Z,15.50
2017-12-05T08:53:43.324Z,15.50
2017-12-05T08:54:43.325Z,15.50
2017-12-05T08:55:43.321Z,15.50
2017-12-05T08:56:43.394Z,15.50
2017-12-05T08:57:43.323Z,15.50
2017-12-05T08:58:43.328Z,15.50
2017-12-05T08:59:43.400Z,18.90
2017-12-05T09:00:43.326Z,18.90
2017-12-05T09:01:43.330Z,18.90
2017-12-05T09:02:43.398Z,18.90
2017-12-05T09:03:43.329Z,18.90
2017-12-05T09:04:43.400Z,18.90
2017-12-05T09:05:43.333Z,18.90
2017-12-05T09:06:43.400Z,18.90
2017-12-05T09:07:43.403Z,18.90
2017-12-05T09:08:43.332Z,18.90
2017-12-05T09:09:43.400Z,20.40
2017-12-05T09:10:43.336Z,20.40
2017-12-05T09:11:43.340Z,20.40
2017-12-05T09:12:43.410Z,20.40
2017-12-05T09:13:43.335Z,20.40
2017-12-05T09:14:43.404Z,20.40
2017-12-05T09:15:43.338Z,20.40
2017-12-05T09:16:43.405Z,20.40
2017-12-05T09:17:43.342Z,20.40
2017-12-05T09:18:43.340Z,20.40
2017-12-05T09:19:43.425Z,14.70
2017-12-05T09:20:43.341Z,14.70
2017-12-05T09:21:43.411Z,14.70
2017-12-05T09:22:43.340Z,14.70
2017-12-05T09:23:43.410Z,14.70
2017-12-05T09:24:43.408Z,14.70
2017-12-05T09:25:43.409Z,14.70
2017-12-05T09:26:43.343Z,14.70
2017-12-05T09:27:43.413Z,14.70
2017-12-05T09:28:43.344Z,14.70
2017-12-05T09:29:43.344Z,18.10
2017-12-05T09:30:43.342Z,18.10
2017-12-05T09:31:43.414Z,18.10
2017-12-05T09:32:43.443Z,18.10
2017-12-05T09:33:43.419Z,18.10
2017-12-05T09:34:43.342Z,18.10
2017-12-05T09:35:43.417Z,18.10
2017-12-05T09:36:43.349Z,18.10
2017-12-05T09:37:43.423Z,18.10
2017-12-05T09:38:43.349Z,18.10
2017-12-05T09:39:43.420Z,18.99
2017-12-05T09:40:43.350Z,18.99
2017-12-05T09:41:43.417Z,18.99
2017-12-05T09:42:43.355Z,18.99
2017-12-05T09:43:43.351Z,18.99
2017-12-05T09:44:43.421Z,18.99
2017-12-05T09:45:43.359Z,18.99
2017-12-05T09:46:43.423Z,18.99
2017-12-05T09:47:43.355Z,18.99
2017-12-05T09:48:43.428Z,18.99
2017-12-05T09:49:43.374Z,18.20
2017-12-05T09:50:43.431Z,18.20
2017-12-05T09:51:43.356Z,18.20
2017-12-05T09:52:43.430Z,18.20
2017-12-05T09:53:43.362Z,18.20
2017-12-05T09:54:43.431Z,18.20
2017-12-05T09:55:43.362Z,18.20
2017-12-05T09:56:43.359Z,18.20
2017-12-05T09:57:43.430Z,18.20
2017-12-05T09:58:43.435Z,18.20
2017-12-05T09:59:43.411Z,17.00
2017-12-05T10:00:43.340Z,17.00
2017-12-05T10:01:43.331Z,17.00
2017-12-05T10:02:43.393Z,17.00
2017-12-05T10:03:43.294Z,17.00
2017-12-05T10:04:43.394Z,17.00
2017-12-05T10:05:43.365Z,17.00
2017-12-05T10:06:43.326Z,17.00
2017-12-05T10:07:43.360Z,17.00
2017-12-05T10:08:43.380Z,17.00
2017-12-05T10:09:43.372Z,18.50
2017-12-05T10:10:43.473Z,18.50
2017-12-05T10:11:43.440Z,18.50
2017-12-05T10:12:43.369Z,18.50
2017-12-05T10:13:43.437Z,18.50
2017-12-05T10:14:43.413Z,18.50
2017-12-05T10:15:43.438Z,18.50
2017-12-05T10:16:43.376Z,18.50
2017-12-05T10:17:43.446Z,18.50
2017-12-05T10:18:43.445Z,18.50
2017-12-05T10:19:43.403Z,21.80
2017-12-05T10:20:43.408Z,21.80
2017-12-05T10:21:43.462Z,21.80
2017-12-05T10:22:43.378Z,21.80
2017-12-05T10:23:43.447Z,21.80
2017-12-05T10:24:43.376Z,21.80
2017-12-05T10:25:43.448Z,21.80
2017-12-05T10:26:43.447Z,21.80
2017-12-05T10:27:43.380Z,21.80
2017-12-05T10:28:43.379Z,21.80
2017-12-05T10:29:43.450Z,21.80
2017-12-05T10:30:43.317Z,20.20
2017-12-05T10:31:43.396Z,20.20
2017-12-05T10:32:43.410Z,20.20
2017-12-05T10:33:43.401Z,20.20
2017-12-05T10:34:43.396Z,20.20
2017-12-05T10:35:43.338Z,20.20
2017-12-05T10:36:43.410Z,20.20
2017-12-05T10:37:43.386Z,20.20
2017-12-05T10:38:43.415Z,20.20
2017-12-05T10:39:43.322Z,20.20
2017-12-05T10:40:43.340Z,18.70
2017-12-05T10:41:43.436Z,18.70
2017-12-05T10:42:43.349Z,18.70
2017-12-05T10:43:43.347Z,18.70
2017-12-05T10:44:43.312Z,18.70
2017-12-05T10:45:43.327Z,18.70
2017-12-05T10:46:43.440Z,18.70
2017-12-05T10:47:43.366Z,18.70
2017-12-05T10:48:43.423Z,18.70
2017-12-05T10:49:43.389Z,18.70
2017-12-05T10:50:43.461Z,21.70
2017-12-05T10:51:43.394Z,21.70
2017-12-05T10:52:43.394Z,21.70
2017-12-05T10:53:43.393Z,21.70
2017-12-05T10:54:43.463Z,21.70
2017-12-05T10:55:43.397Z,21.70
2017-12-05T10:56:43.463Z,21.70
2017-12-05T10:57:43.398Z,21.70
2017-12-05T10:58:43.468Z,21.70
2017-12-05T10:59:43.472Z,21.70
2017-12-05T11:00:43.373Z,17.99
2017-12-05T11:01:43.346Z,17.99
2017-12-05T11:02:43.466Z,17.99
2017-12-05T11:03:43.454Z,17.99
2017-12-05T11:04:43.440Z,17.99
2017-12-05T11:05:43.452Z,17.99
2017-12-05T11:06:43.421Z,17.99
2017-12-05T11:07:43.330Z,17.99
2017-12-05T11:08:43.470Z,17.99
2017-12-05T11:09:43.439Z,17.99
2017-12-05T11:10:43.477Z,21.99
2017-12-05T11:11:43.403Z,21.99
2017-12-05T11:12:43.477Z,21.99
2017-12-05T11:13:43.412Z,21.99
2017-12-05T11:14:43.408Z,21.99
2017-12-05T11:15:43.478Z,21.99
2017-12-05T11:16:43.404Z,21.99
2017-12-05T11:17:43.475Z,21.99
2017-12-05T11:18:43.408Z,21.99
2017-12-05T11:19:43.476Z,21.99
2017-12-05T11:20:43.333Z,18.00
2017-12-05T11:21:43.335Z,18.00
2017-12-05T11:22:43.348Z,18.00
2017-12-05T11:23:43.431Z,18.00
2017-12-05T11:24:43.376Z,18.00
2017-12-05T11:25:43.390Z,18.00
2017-12-05T11:26:43.334Z,18.00
2017-12-05T11:27:43.378Z,18.00
2017-12-05T11:28:43.432Z,18.00
2017-12-05T11:29:43.432Z,18.00
2017-12-05T11:30:43.419Z,21.99
2017-12-05T11:31:43.487Z,21.99
2017-12-05T11:32:43.485Z,21.99
2017-12-05T11:33:43.419Z,21.99
2017-12-05T11:34:43.485Z,21.99
2017-12-05T11:35:43.420Z,21.99
2017-12-05T11:36:43.489Z,21.99
2017-12-05T11:37:43.492Z,21.99
2017-12-05T11:38:43.422Z,21.99
2017-12-05T11:39:43.490Z,21.99
2017-12-05T11:40:43.447Z,24.30
2017-12-05T11:41:43.491Z,24.30
2017-12-05T11:42:43.496Z,24.30
2017-12-05T11:43:43.429Z,24.30
2017-12-05T11:44:43.494Z,24.30
2017-12-05T11:45:43.428Z,24.30
2017-12-05T11:46:43.493Z,24.30
2017-12-05T11:47:43.464Z,24.30
2017-12-05T11:48:43.494Z,24.30
2017-12-05T11:49:43.458Z,24.30
2017-12-05T11:50:43.494Z,27.90
2017-12-05T11:51:43.437Z,27.90
2017-12-05T11:52:43.498Z,27.90
2017-12-05T11:53:43.500Z,27.90
2017-12-05T11:54:43.498Z,27.90
2017-12-05T11:55:43.432Z,27.90
2017-12-05T11:56:43.430Z,27.90
2017-12-05T11:57:43.540Z,27.90
2017-12-05T11:58:43.507Z,27.90
2017-12-05T11:59:43.433Z,27.90
2017-12-05T12:00:43.436Z,28.00
2017-12-05T12:01:43.510Z,28.00
2017-12-05T12:02:43.466Z,28.00
2017-12-05T12:03:43.467Z,28.00
2017-12-05T12:04:43.393Z,28.00
2017-12-05T12:05:43.443Z,28.00
2017-12-05T12:06:43.466Z,28.00
2017-12-05T12:07:43.371Z,28.00
2017-12-05T12:08:43.460Z,28.00
2017-12-05T12:09:43.443Z,28.00
2017-12-05T12:10:43.507Z,28.30
2017-12-05T12:11:43.508Z,28.30
2017-12-05T12:12:43.544Z,28.30
2017-12-05T12:13:43.440Z,28.30
2017-12-05T12:14:43.514Z,28.30
2017-12-05T12:15:43.513Z,28.30
2017-12-05T12:16:43.444Z,28.30
2017-12-05T12:17:43.513Z,28.30
2017-12-05T12:18:43.447Z,28.30
2017-12-05T12:19:43.513Z,28.30
2017-12-05T12:20:43.446Z,22.10
2017-12-05T12:21:43.517Z,22.10
2017-12-05T12:22:43.452Z,22.10
2017-12-05T12:23:43.410Z,22.10
2017-12-05T12:24:43.450Z,22.10
2017-12-05T12:25:43.518Z,22.10
2017-12-05T12:26:43.519Z,22.10
2017-12-05T12:27:43.454Z,22.10
2017-12-05T12:28:43.523Z,22.10
2017-12-05T12:29:43.521Z,22.10
2017-12-05T12:30:43.496Z,26.99
2017-12-05T12:31:43.469Z,26.99
2017-12-05T12:32:43.484Z,26.99
2017-12-05T12:33:43.456Z,26.99
2017-12-05T12:34:43.383Z,26.99
2017-12-05T12:35:43.422Z,26.99
2017-12-05T12:36:43.479Z,26.99
2017-12-05T12:37:43.478Z,26.99
2017-12-05T12:38:43.475Z,26.99
2017-12-05T12:39:43.559Z,26.99
2017-12-05T12:40:43.435Z,19.40
2017-12-05T12:41:43.437Z,19.40
2017-12-05T12:42:43.418Z,19.40
2017-12-05T12:43:43.418Z,19.40
2017-12-05T12:44:43.386Z,19.40
2017-12-05T12:45:43.494Z,19.40
2017-12-05T12:46:43.464Z,19.40
2017-12-05T12:47:43.392Z,19.40
2017-12-05T12:48:43.486Z,19.40
2017-12-05T12:49:43.427Z,19.40
2017-12-05T12:50:43.414Z,22.80
2017-12-05T12:51:43.533Z,22.80
2017-12-05T12:52:43.467Z,22.80
2017-12-05T12:53:43.401Z,22.80
2017-12-05T12:54:43.417Z,22.80